.
WxDataArchive / Data Records for 2006-10-05
2006-10-04 October 2006 2006-10-06

Data Records for Thursday, 05 October 2006

Time	Temp	Chill	HIndex	Humid	Dewpt	 Wind 	HiWind	WindDir	Rain 	Barom 
-----	----	-----	------	-----	-----	------	------	-------	-----	----- 
00:00	53.9	53.9	53.9	85	49.5	3	6	90	0.00	30.182 
00:05	53.9	53.9	53.9	85	49.5	2	6	90	0.00	30.182 
00:10	53.9	53.9	53.9	85	49.5	2	9	112	0.00	30.182 
00:15	53.8	53.8	53.8	84	49.1	5	11	90	0.00	30.188 
00:20	53.8	53.8	53.8	85	49.4	3	7	112	0.00	30.188 
00:25	53.8	53.8	53.8	86	49.7	2	6	90	0.00	30.188 
00:30	53.6	53.6	53.6	85	49.2	2	7	68	0.00	30.182 
00:35	53.6	53.6	53.6	84	48.9	4	10	112	0.00	30.182 
00:40	53.6	53.6	53.6	84	48.9	4	9	90	0.00	30.182 
00:45	53.6	53.6	53.6	83	48.6	3	11	112	0.00	30.185 
00:50	53.6	53.6	53.6	83	48.6	2	9	90	0.00	30.185 
00:55	53.5	53.5	53.5	82	48.1	3	10	112	0.00	30.185 
01:00	53.5	53.5	53.5	82	48.1	4	11	90	0.00	30.187 
01:05	53.5	53.5	53.5	82	48.1	3	10	90	0.00	30.187 
01:10	53.5	53.5	53.5	81	47.8	3	9	90	0.00	30.187 
01:15	53.3	53.3	53.3	78	46.6	4	12	90	0.00	30.182 
01:20	53.3	53.3	53.3	79	47.0	3	9	112	0.00	30.182 
01:25	53.3	53.3	53.3	78	46.6	3	10	112	0.00	30.182 
01:30	53.3	53.3	53.3	77	46.3	5	12	90	0.00	30.182 
01:35	53.3	53.3	53.3	77	46.3	4	14	90	0.00	30.182 
01:40	53.2	53.2	53.2	76	45.8	4	12	112	0.00	30.182 
01:45	53.2	53.2	53.2	77	46.2	2	7	68	0.00	30.190 
01:50	53.2	53.2	53.2	76	45.8	3	10	90	0.00	30.190 
01:55	53.2	53.2	53.2	75	45.5	4	12	90	0.00	30.190 
02:00	53.2	53.2	53.2	75	45.5	2	9	112	0.00	30.191 
02:05	53.1	53.1	53.1	75	45.4	2	5	90	0.00	30.191 
02:10	53.1	53.1	53.1	77	46.1	1	7	90	0.00	30.191 
02:15	53.1	53.1	53.1	76	45.7	2	4	90	0.00	30.194 
02:20	53.1	53.1	53.1	76	45.7	2	7	90	0.00	30.194 
02:25	52.9	52.9	52.9	76	45.5	1	5	90	0.00	30.194 
02:30	52.9	52.9	52.9	76	45.5	2	5	112	0.00	30.183 
02:35	52.9	52.9	52.9	76	45.5	2	4	68	0.00	30.183 
02:40	52.9	52.9	52.9	76	45.5	1	3	90	0.00	30.183 
02:45	52.9	52.9	52.9	76	45.5	1	5	90	0.00	30.183 
02:50	52.8	52.8	52.8	77	45.8	0	2	45	0.00	30.183 
02:55	52.8	52.8	52.8	76	45.4	1	4	112	0.00	30.183 
03:00	52.8	52.8	52.8	75	45.1	2	5	112	0.00	30.180 
03:05	52.8	52.8	52.8	76	45.4	1	4	112	0.00	30.180 
03:10	52.8	52.8	52.8	75	45.1	1	5	90	0.00	30.180 
03:15	52.8	52.8	52.8	75	45.1	1	6	90	0.00	30.184 
03:20	52.8	52.8	52.8	76	45.4	2	5	90	0.00	30.184 
03:25	52.6	52.6	52.6	76	45.3	2	5	112	0.00	30.184 
03:30	52.6	52.6	52.6	76	45.3	2	6	112	0.00	30.183 
03:35	52.6	52.6	52.6	76	45.3	1	4	112	0.00	30.183 
03:40	52.5	52.5	52.5	76	45.2	1	3	135	0.00	30.183 
03:45	52.5	52.5	52.5	76	45.2	1	5	90	0.00	30.184 
03:50	52.5	52.5	52.5	75	44.8	1	5	90	0.00	30.184 
03:55	52.5	52.5	52.5	75	44.8	2	4	90	0.00	30.184 
04:00	52.5	52.5	52.5	75	44.8	2	4	112	0.00	30.171 
04:05	52.3	52.3	52.3	76	45.0	2	5	68	0.00	30.171 
04:10	52.3	52.3	52.3	76	45.0	2	5	45	0.00	30.171 
04:15	52.0	52.0	52.0	76	44.7	1	2	112	0.00	30.173 
04:20	51.9	51.9	51.9	77	44.9	1	5	112	0.00	30.173 
04:25	51.6	51.6	51.6	77	44.6	1	3	90	0.00	30.173 
04:30	51.4	51.4	51.4	78	44.8	1	3	90	0.00	30.180 
04:35	51.4	51.4	51.4	78	44.8	1	3	68	0.00	30.180 
04:40	51.3	51.3	51.3	78	44.7	0	3	68	0.00	30.180 
04:45	51.1	51.1	51.1	79	44.8	1	2	112	0.00	30.178 
04:50	51.0	51.0	51.0	79	44.7	1	3	90	0.00	30.178 
04:55	51.0	51.0	51.0	80	45.0	1	3	90	0.00	30.178 
05:00	50.8	50.8	50.8	79	44.5	1	4	112	0.00	30.185 
05:05	51.0	51.0	51.0	79	44.7	1	4	112	0.00	30.185 
05:10	51.0	51.0	51.0	79	44.7	2	5	90	0.00	30.185 
05:15	50.8	50.8	50.8	80	44.9	1	3	90	0.00	30.178 
05:20	50.5	50.5	50.5	81	44.9	1	4	90	0.00	30.178 
05:25	50.4	50.4	50.4	81	44.8	1	4	45	0.00	30.178 
05:30	50.1	50.1	50.1	81	44.5	1	4	90	0.00	30.186 
05:35	49.8	49.8	49.8	81	44.2	1	4	112	0.00	30.186 
05:40	49.6	49.6	49.6	82	44.3	1	3	112	0.00	30.186 
05:45	49.5	49.5	49.5	82	44.2	1	4	45	0.00	30.189 
05:50	49.4	49.4	49.4	83	44.5	1	3	68	0.00	30.189 
05:55	49.1	49.1	49.1	83	44.2	0	3	90	0.00	30.189 
06:00	48.9	48.9	48.9	83	44.0	1	3	68	0.00	30.196 
06:05	48.9	48.9	48.9	83	44.0	1	3	90	0.00	30.196 
06:10	48.8	48.8	48.8	83	43.9	1	3	90	0.00	30.196 
06:15	48.6	48.6	48.6	83	43.7	1	5	112	0.00	30.198 
06:20	48.6	48.6	48.6	83	43.7	1	4	90	0.00	30.198 
06:25	48.6	48.6	48.6	83	43.7	1	5	45	0.00	30.198 
06:30	48.8	48.8	48.8	82	43.6	1	4	112	0.00	30.197 
06:35	48.9	48.9	48.9	82	43.6	1	4	112	0.00	30.197 
06:40	48.9	48.9	48.9	82	43.6	1	4	68	0.00	30.197 
06:45	49.1	49.1	49.1	80	43.2	1	4	135	0.00	30.207 
06:50	49.1	49.1	49.1	79	42.9	1	6	90	0.00	30.207 
06:55	49.1	49.1	49.1	78	42.5	2	6	112	0.00	30.207 
07:00	48.9	48.9	48.9	77	42.0	1	4	112	0.00	30.207 
07:05	48.9	48.9	48.9	77	42.0	1	4	90	0.00	30.207 
07:10	48.9	48.9	48.9	77	42.0	2	7	112	0.00	30.207 
07:15	48.9	48.9	48.9	77	42.0	2	6	68	0.00	30.218 
07:20	48.8	48.8	48.8	77	41.9	1	4	90	0.00	30.218 
07:25	48.8	48.8	48.8	76	41.6	1	5	135	0.00	30.218 
07:30	48.8	48.8	48.8	77	41.9	1	4	90	0.00	30.223 
07:35	48.6	48.6	48.6	77	41.7	2	5	45	0.00	30.223 
07:40	48.6	48.6	48.6	77	41.7	1	5	135	0.00	30.223 
07:45	48.6	48.6	48.6	77	41.7	1	6	112	0.00	30.226 
07:50	48.6	48.6	48.6	78	42.1	1	3	68	0.00	30.226 
07:55	48.6	48.6	48.6	78	42.1	2	5	112	0.00	30.226 
08:00	48.6	48.6	48.6	76	41.4	2	5	90	0.00	30.227 
08:05	48.6	48.6	48.6	77	41.7	2	5	112	0.00	30.227 
08:10	48.6	48.6	48.6	76	41.4	1	7	90	0.00	30.227 
08:15	48.6	48.6	48.6	75	41.0	2	5	90	0.00	30.227 
08:20	48.6	48.6	48.6	74	40.7	3	6	112	0.00	30.227 
08:25	48.6	48.6	48.6	74	40.7	2	6	90	0.00	30.227 
08:30	48.6	48.6	48.6	74	40.7	2	6	90	0.00	30.221 
08:35	48.6	48.6	48.6	74	40.7	2	6	112	0.00	30.221 
08:40	48.6	48.6	48.6	75	41.0	1	3	90	0.00	30.221 
08:45	48.6	48.6	48.6	75	41.0	2	6	112	0.00	30.228 
08:50	48.6	48.6	48.6	74	40.7	1	9	112	0.00	30.228 
08:55	48.6	48.6	48.6	75	41.0	2	5	90	0.00	30.228 
09:00	48.8	48.8	48.8	74	40.9	2	4	112	0.00	30.228 
09:05	48.8	48.8	48.8	73	40.5	2	5	45	0.00	30.228 
09:10	48.8	48.8	48.8	73	40.5	2	7	112	0.00	30.228 
09:15	48.9	48.9	48.9	73	40.6	2	6	68	0.00	30.232 
09:20	48.9	48.9	48.9	74	41.0	2	5	112	0.00	30.232 
09:25	49.1	49.1	49.1	75	41.5	2	5	112	0.00	30.232 
09:30	49.1	49.1	49.1	75	41.5	1	5	45	0.00	30.235 
09:35	49.2	49.2	49.2	73	40.9	3	7	90	0.00	30.235 
09:40	49.2	49.2	49.2	72	40.6	2	5	90	0.00	30.235 
09:45	49.4	49.4	49.4	72	40.8	2	4	90	0.00	30.243 
09:50	49.5	49.5	49.5	73	41.2	2	4	90	0.00	30.243 
09:55	49.6	49.6	49.6	72	40.9	2	5	90	0.00	30.243 
10:00	49.8	49.8	49.8	72	41.1	2	7	90	0.00	30.240 
10:05	49.9	49.9	49.9	73	41.6	2	7	90	0.00	30.240 
10:10	50.1	50.1	50.1	73	41.8	2	5	112	0.00	30.240 
10:15	50.2	50.2	50.2	72	41.5	2	6	90	0.00	30.243 
10:20	50.5	50.5	50.5	73	42.2	2	5	90	0.00	30.243 
10:25	50.8	50.8	50.8	72	42.1	2	5	112	0.00	30.243 
10:30	51.0	51.0	51.0	71	41.9	2	7	90	0.00	30.242 
10:35	51.1	51.1	51.1	70	41.7	2	6	90	0.00	30.242 
10:40	51.3	51.3	51.3	71	42.2	2	5	90	0.00	30.242 
10:45	51.6	51.6	51.6	70	42.1	2	6	112	0.00	30.243 
10:50	51.7	51.7	51.7	70	42.2	2	7	90	0.00	30.243 
10:55	51.9	51.9	51.9	70	42.4	3	6	90	0.00	30.243 
11:00	51.9	51.9	51.9	71	42.8	3	6	90	0.00	30.243 
11:05	52.2	52.2	52.2	72	43.4	2	6	90	0.00	30.243 
11:10	52.6	52.6	52.6	70	43.1	2	6	90	0.00	30.243 
11:15	52.9	52.9	52.9	69	43.0	2	5	112	0.00	30.251 
11:20	53.1	53.1	53.1	71	43.9	1	4	180	0.00	30.251 
11:25	53.3	53.3	53.3	70	43.8	2	5	68	0.00	30.251 
11:30	53.5	53.5	53.5	68	43.2	1	4	90	0.00	30.250 
11:35	53.5	53.5	53.5	68	43.2	2	9	90	0.00	30.250 
11:40	53.6	53.6	53.6	70	44.1	2	5	112	0.00	30.250 
11:45	53.9	53.9	53.9	70	44.3	2	4	112	0.00	30.245 
11:50	54.1	54.1	54.1	68	43.8	2	6	90	0.00	30.245 
11:55	54.5	54.5	54.5	68	44.2	1	4	90	0.00	30.245 
12:00	55.1	55.1	55.1	68	44.7	1	4	112	0.00	30.243 
12:05	55.3	55.3	55.3	68	44.9	2	5	112	0.00	30.243 
12:10	55.4	55.4	55.4	67	44.6	2	5	112	0.00	30.243 
12:15	55.6	55.6	55.6	68	45.2	2	5	112	0.00	30.238 
12:20	55.6	55.6	55.6	65	44.0	3	7	112	0.00	30.238 
12:25	55.9	55.9	55.9	65	44.3	3	7	112	0.00	30.238 
12:30	56.3	56.3	56.3	65	44.7	2	6	90	0.00	30.229 
12:35	56.5	56.5	56.5	69	46.5	2	9	112	0.00	30.229 
12:40	57.0	57.0	57.0	65	45.4	1	5	90	0.00	30.229 
12:45	57.0	57.0	57.0	63	44.5	2	7	90	0.00	30.230 
12:50	56.9	56.9	56.9	64	44.8	2	5	112	0.00	30.230 
12:55	57.0	57.0	57.0	65	45.4	1	7	90	0.00	30.230 
13:00	57.2	57.2	57.2	65	45.5	2	6	135	0.00	30.225 
13:05	57.2	57.2	57.2	62	44.3	3	9	90	0.00	30.225 
13:10	57.8	57.8	57.8	62	44.9	4	10	112	0.00	30.225 
13:15	58.1	58.1	58.1	60	44.3	5	9	90	0.00	30.224 
13:20	58.4	58.4	58.4	65	46.7	2	8	90	0.00	30.224 
13:25	58.6	58.6	58.6	59	44.3	2	6	90	0.00	30.224 
13:30	58.9	58.9	58.9	67	48.0	2	6	90	0.00	30.222 
13:35	58.4	58.4	58.4	60	44.6	1	5	112	0.00	30.222 
13:40	58.3	58.3	58.3	62	45.3	0	2	22	0.00	30.222 
13:45	58.1	58.1	58.1	61	44.7	1	5	292	0.00	30.224 
13:50	58.4	58.4	58.4	59	44.1	2	6	112	0.00	30.224 
13:55	58.3	58.3	58.3	62	45.3	3	7	112	0.00	30.224 
14:00	59.0	59.0	59.0	60	45.1	2	5	90	0.00	30.222 
14:05	59.6	59.6	59.6	60	45.7	1	4	68	0.00	30.222 
14:10	59.6	59.6	59.6	60	45.7	1	6	90	0.00	30.222 
14:15	59.2	59.2	59.2	60	45.3	3	7	112	0.00	30.208 
14:20	58.3	58.3	58.3	60	44.5	2	5	45	0.00	30.208 
14:25	58.4	58.4	58.4	65	46.7	1	5	112	0.00	30.208 
14:30	59.5	59.5	59.5	60	45.6	1	4	90	0.00	30.207 
14:35	59.6	59.6	59.6	55	43.4	2	6	90	0.00	30.207 
14:40	59.0	59.0	59.0	55	42.9	2	4	90	0.00	30.207 
14:45	59.3	59.3	59.3	60	45.4	1	3	90	0.00	30.202 
14:50	59.9	59.9	59.9	60	46.0	2	7	90	0.00	30.202 
14:55	59.9	59.9	59.9	59	45.5	3	6	90	0.00	30.202 
15:00	60.1	60.1	60.1	61	46.6	1	5	112	0.00	30.196 
15:05	60.1	60.1	60.1	56	44.3	2	5	112	0.00	30.196 
15:10	59.6	59.6	59.6	56	43.9	2	7	90	0.00	30.196 
15:15	59.6	59.6	59.6	54	42.9	1	3	68	0.00	30.201 
15:20	59.8	59.8	59.8	52	42.1	2	6	112	0.00	30.201 
15:25	59.6	59.6	59.6	56	43.9	1	3	112	0.00	30.201 
15:30	59.8	59.8	59.8	52	42.1	3	8	90	0.00	30.202 
15:35	59.8	59.8	59.8	54	43.1	3	9	90	0.00	30.202 
15:40	59.8	59.8	59.8	52	42.1	4	9	112	0.00	30.202 
15:45	59.8	59.8	59.8	52	42.1	3	6	112	0.00	30.205 
15:50	59.8	59.8	59.8	50	41.1	3	9	112	0.00	30.205 
15:55	59.9	59.9	59.9	50	41.2	3	10	90	0.00	30.205 
16:00	60.1	60.1	60.1	55	43.9	1	9	112	0.00	30.205 
16:05	60.1	60.1	60.1	45	38.7	3	8	112	0.00	30.205 
16:10	59.9	59.9	59.9	51	41.7	2	9	68	0.00	30.205 
16:15	59.9	59.9	59.9	46	39.1	1	6	90	0.00	30.209 
16:20	59.9	59.9	59.9	47	39.6	2	6	112	0.00	30.209 
16:25	60.1	60.1	60.1	44	38.1	3	6	90	0.00	30.209 
16:30	59.9	59.9	59.9	42	36.8	2	4	90	0.00	30.215 
16:35	59.8	59.8	59.8	41	36.1	2	6	90	0.00	30.215 
16:40	59.6	59.6	59.6	42	36.5	1	6	112	0.00	30.215 
16:45	59.5	59.5	59.5	41	35.8	2	9	112	0.00	30.222 
16:50	59.3	59.3	59.3	43	36.8	2	5	112	0.00	30.222 
16:55	59.2	59.2	59.2	40	34.9	4	9	90	0.00	30.222 
17:00	59.0	59.0	59.0	40	34.7	2	9	112	0.00	30.220 
17:05	58.9	58.9	58.9	39	34.0	1	3	45	0.00	30.220 
17:10	58.7	58.7	58.7	43	36.3	1	3	112	0.00	30.220 
17:15	58.7	58.7	58.7	44	36.8	2	6	68	0.00	30.223 
17:20	58.6	58.6	58.6	43	36.2	2	6	90	0.00	30.223 
17:25	58.4	58.4	58.4	39	33.5	1	4	45	0.00	30.223 
17:30	58.3	58.3	58.3	39	33.5	1	4	112	0.00	30.225 
17:35	58.1	58.1	58.1	38	32.6	2	6	112	0.00	30.225 
17:40	58.1	58.1	58.1	42	35.1	2	5	112	0.00	30.225 
17:45	58.0	58.0	58.0	41	34.4	1	3	135	0.00	30.229 
17:50	57.6	57.6	57.6	39	32.8	2	6	45	0.00	30.229 
17:55	57.6	57.6	57.6	40	33.5	2	5	135	0.00	30.229 
18:00	57.5	57.5	57.5	43	35.2	1	5	112	0.00	30.230 
18:05	57.5	57.5	57.5	41	34.0	1	5	45	0.00	30.230 
18:10	57.3	57.3	57.3	46	36.7	1	4	135	0.00	30.230 
18:15	57.6	57.6	57.6	42	34.7	2	6	112	0.00	30.230 
18:20	57.6	57.6	57.6	44	35.8	2	3	90	0.00	30.230 
18:25	57.5	57.5	57.5	44	35.8	1	4	112	0.00	30.230 
18:30	57.3	57.3	57.3	45	36.1	1	4	112	0.00	30.238 
18:35	57.5	57.5	57.5	47	37.4	1	4	90	0.00	30.238 
18:40	57.6	57.6	57.6	47	37.5	1	2	90	0.00	30.238 
18:45	57.2	57.2	57.2	47	37.2	1	6	45	0.00	30.241 
18:50	56.9	56.9	56.9	48	37.4	1	5	90	0.00	30.241 
18:55	56.3	56.3	56.3	49	37.4	0	3	90	0.00	30.241 
19:00	55.9	55.9	55.9	49	37.0	1	4	90	0.00	30.246 
19:05	55.6	55.6	55.6	52	38.3	0	2	22	0.00	30.246 
19:10	55.1	55.1	55.1	52	37.8	1	7	112	0.00	30.246 
19:15	54.8	54.8	54.8	53	38.0	0	2	112	0.00	30.249 
19:20	54.4	54.4	54.4	55	38.6	0	1	112	0.00	30.249 
19:25	53.8	53.8	53.8	56	38.5	0	1	112	0.00	30.249 
19:30	53.3	53.3	53.3	57	38.5	0	1	112	0.00	30.255 
19:35	52.9	52.9	52.9	58	38.5	0	1	112	0.00	30.255 
19:40	52.6	52.6	52.6	59	38.7	0	1	112	0.00	30.255 
19:45	52.3	52.3	52.3	59	38.4	0	1	112	0.00	30.259 
19:50	51.9	51.9	51.9	60	38.5	0	1	112	0.00	30.259 
19:55	51.6	51.6	51.6	60	38.2	0	2	112	0.00	30.259 
20:00	51.3	51.3	51.3	62	38.7	0	0	---	0.00	30.265 
20:05	50.8	50.8	50.8	63	38.7	0	0	---	0.00	30.265 
20:10	50.5	50.5	50.5	64	38.8	0	1	112	0.00	30.265 
20:15	50.4	50.4	50.4	66	39.5	0	0	---	0.00	30.270 
20:20	50.1	50.1	50.1	67	39.6	0	4	135	0.00	30.270 
20:25	50.4	50.4	50.4	65	39.1	1	5	90	0.00	30.270 
20:30	50.5	50.5	50.5	66	39.6	0	3	112	0.00	30.275 
20:35	50.5	50.5	50.5	65	39.2	0	1	112	0.00	30.275 
20:40	50.4	50.4	50.4	67	39.9	0	2	112	0.00	30.275 
20:45	50.2	50.2	50.2	66	39.3	0	2	112	0.00	30.278 
20:50	50.1	50.1	50.1	65	38.8	1	3	135	0.00	30.278 
20:55	50.2	50.2	50.2	65	38.9	1	4	90	0.00	30.278 
21:00	50.2	50.2	50.2	64	38.5	1	4	135	0.00	30.281 
21:05	50.2	50.2	50.2	64	38.5	1	3	90	0.00	30.281 
21:10	50.1	50.1	50.1	65	38.8	0	3	112	0.00	30.281 
21:15	49.9	49.9	49.9	65	38.6	1	3	68	0.00	30.283 
21:20	49.8	49.8	49.8	65	38.5	0	3	90	0.00	30.283 
21:25	49.5	49.5	49.5	66	38.6	0	2	90	0.00	30.283 
21:30	49.2	49.2	49.2	66	38.3	0	1	112	0.00	30.284 
21:35	48.9	48.9	48.9	67	38.4	0	1	112	0.00	30.284 
21:40	48.6	48.6	48.6	67	38.1	0	2	112	0.00	30.284 
21:45	48.3	48.3	48.3	69	38.6	0	1	112	0.00	30.296 
21:50	48.0	48.0	48.0	68	37.9	0	3	135	0.00	30.296 
21:55	47.9	47.9	47.9	69	38.2	0	1	135	0.00	30.296 
22:00	47.6	47.6	47.6	69	37.9	0	0	---	0.00	30.299 
22:05	47.4	47.4	47.4	70	38.1	0	1	135	0.00	30.299 
22:10	47.1	47.1	47.1	71	38.2	0	1	135	0.00	30.299 
22:15	47.0	47.0	47.0	71	38.1	0	1	135	0.00	30.302 
22:20	46.8	46.8	46.8	71	37.9	0	1	180	0.00	30.302 
22:25	46.8	46.8	46.8	72	38.3	0	1	180	0.00	30.302 
22:30	46.7	46.7	46.7	72	38.2	0	1	135	0.00	30.309 
22:35	46.5	46.5	46.5	73	38.3	0	0	---	0.00	30.309 
22:40	46.4	46.4	46.4	73	38.2	0	1	135	0.00	30.309 
22:45	46.2	46.2	46.2	73	38.0	0	1	135	0.00	30.312 
22:50	46.1	46.1	46.1	73	37.9	0	1	135	0.00	30.312 
22:55	46.1	46.1	46.1	73	37.9	0	1	135	0.00	30.312 
23:00	46.0	46.0	46.0	73	37.8	0	1	135	0.00	30.315 
23:05	45.8	45.8	45.8	74	38.0	0	1	135	0.00	30.315 
23:10	45.7	45.7	45.7	75	38.2	0	0	---	0.00	30.315 
23:15	45.5	45.5	45.5	75	38.0	0	2	135	0.00	30.319 
23:20	45.4	45.4	45.4	76	38.3	0	1	135	0.00	30.319 
23:25	45.2	45.2	45.2	76	38.1	0	0	---	0.00	30.319 
23:30	45.2	45.2	45.2	75	37.8	0	2	135	0.00	30.320 
23:35	45.1	45.1	45.1	76	38.0	0	1	158	0.00	30.320 
23:40	45.1	45.1	45.1	76	38.0	0	2	158	0.00	30.320 
23:45	45.2	45.2	45.2	74	37.4	1	5	158	0.00	30.320 
23:50	45.4	45.4	45.4	75	37.9	0	2	112	0.00	30.320 
23:55	45.4	45.4	45.4	75	37.9	0	2	112	0.00	30.320 

CoCoRaHS
IN-AL-39
A2 Web Hosting
Creative Commons License
GoDaddy
Look for:

loaded 2017-10-16 18:34:58 • last modified 2010-11-18 10:43:29
Privacy PolicyDisclaimer
• wx.awcolley.com is powered by PmWiki v.2002016 •
• all content (unless otherwise noted) © 2017 A W Colley